Time;durP1;ratioP1;P1;durP2;ratioP2;P2;SDS_P1;SDS_P2;PMS_P1;PMS_P2;Temp;Humidity;BMP_temperature;BMP_pressure;BME280_temperature;BME280_humidity;BME280_pressure;Samples;Min_cycle;Max_cycle;Signal;HPM_P1;HPM_P2
2022/09/28 00:01:42;;;;;;;;;0.00;0.00;;;;;12.50;83.49;99103.78;5095999;27;45413;-82
2022/09/28 00:04:07;;;;;;;;;1.75;1.50;;;;;12.56;83.20;99123.84;5094380;27;45387;-81
2022/09/28 00:06:33;;;;;;;;;1.25;1.00;;;;;12.48;82.76;99112.75;5097980;27;45499;-82
2022/09/28 00:09:00;;;;;;;;;2.00;1.00;;;;;12.49;82.67;99114.47;5115880;27;45452;-81
2022/09/28 00:11:27;;;;;;;;;3.00;3.00;;;;;12.54;82.11;99125.69;5105330;27;45398;-81
2022/09/28 00:13:55;;;;;;;;;1.00;1.00;;;;;12.49;82.02;99114.47;5095840;27;45540;-81
2022/09/28 00:16:26;;;;;;;;;1.00;1.00;;;;;12.01;81.19;99035.63;5095859;27;45371;-81
2022/09/28 00:18:53;;;;;;;;;0.00;0.00;;;;;12.53;80.98;99140.75;5096500;27;45388;-82
2022/09/28 00:21:22;;;;;;;;;1.25;0.00;;;;;12.42;80.69;99111.28;5095676;27;45394;-81
2022/09/28 00:24:11;;;;;;;;;4.00;1.00;;;;;12.54;80.78;99134.50;5089402;27;45422;-82
2022/09/28 00:26:51;;;;;;;;;1.50;1.50;;;;;12.53;80.18;99122.19;5089783;27;45499;-82
2022/09/28 00:29:21;;;;;;;;;2.00;2.00;;;;;12.52;79.62;99131.06;5096767;27;45334;-81
2022/09/28 00:31:47;;;;;;;;;1.00;1.00;;;;;12.49;79.66;99125.91;5099120;27;45440;-82
2022/09/28 00:34:13;;;;;;;;;5.00;1.00;;;;;12.51;79.53;99129.38;5111719;27;45301;-82
2022/09/28 00:36:43;;;;;;;;;1.75;1.00;;;;;12.50;79.45;99122.34;5107769;27;45341;-82
2022/09/28 00:39:08;;;;;;;;;2.25;1.75;;;;;12.20;79.07;99077.91;5096988;27;45435;-82
2022/09/28 00:41:34;;;;;;;;;1.00;1.00;;;;;12.48;78.48;99133.94;5094216;27;45422;-82
2022/09/28 00:44:39;;;;;;;;;1.00;0.00;;;;;12.46;77.87;99133.19;5095839;27;45432;-81
2022/09/28 00:47:25;;;;;;;;;0.00;0.00;;;;;12.30;77.58;99098.63;5084720;27;45645;-82
2022/09/28 00:49:54;;;;;;;;;0.00;0.00;;;;;12.32;77.44;99102.94;5095607;27;45274;-80
2022/09/28 00:52:25;;;;;;;;;0.50;0.50;;;;;12.18;77.48;99095.69;5106728;27;45248;-81
2022/09/28 00:54:52;;;;;;;;;2.00;1.00;;;;;12.29;78.02;99123.44;5080781;27;45414;-80
2022/09/28 00:57:19;;;;;;;;;1.50;0.75;;;;;12.29;78.21;99118.13;5095865;27;45536;-81
2022/09/28 00:59:45;;;;;;;;;0.75;0.75;;;;;12.25;77.83;99118.28;5110748;27;46754;-83
2022/09/28 01:02:10;;;;;;;;;1.00;1.00;;;;;12.21;78.34;99100.81;5104899;27;45366;-80
2022/09/28 01:04:38;;;;;;;;;1.00;1.00;;;;;12.15;78.84;99101.13;5094722;27;45787;-80
2022/09/28 01:07:08;;;;;;;;;1.00;1.00;;;;;11.77;79.19;99042.97;5095226;27;45466;-80
2022/09/28 01:09:37;;;;;;;;;0.25;0.25;;;;;12.15;79.37;99106.44;5077435;27;47068;-80
2022/09/28 01:12:02;;;;;;;;;0.00;0.00;;;;;12.21;79.81;99116.72;5097269;27;45331;-80
2022/09/28 01:14:28;;;;;;;;;0.00;0.00;;;;;12.13;80.21;99108.31;5105515;27;45468;-80
2022/09/28 01:17:15;;;;;;;;;0.00;0.00;;;;;12.11;79.94;99099.56;5100836;27;45260;-80
2022/09/28 01:20:04;;;;;;;;;1.50;1.50;;;;;12.22;80.52;99110.50;5104683;27;46452;-80
2022/09/28 01:22:54;;;;;;;;;2.00;1.50;;;;;12.24;80.44;99113.06;5088720;27;45619;-81
2022/09/28 01:25:25;;;;;;;;;4.00;2.00;;;;;12.23;80.87;99114.84;5099409;27;45522;-79
2022/09/28 01:28:08;;;;;;;;;1.00;1.00;;;;;12.22;81.57;99106.97;5099103;27;45307;-82
2022/09/28 01:30:59;;;;;;;;;4.00;3.00;;;;;12.15;81.58;99087.91;5105748;27;45467;-81
2022/09/28 01:33:31;;;;;;;;;1.00;1.00;;;;;12.22;81.51;99097.25;5079207;27;45493;-81
2022/09/28 01:36:19;;;;;;;;;0.50;0.50;;;;;12.18;82.03;99105.44;5076942;28;45320;-80
2022/09/28 01:38:54;;;;;;;;;1.50;1.50;;;;;12.17;81.71;99106.34;5082173;28;45390;-79
2022/09/28 01:41:22;;;;;;;;;1.50;1.00;;;;;11.87;82.09;99060.13;5077877;27;46285;-80
2022/09/28 01:43:53;;;;;;;;;1.00;1.00;;;;;12.01;81.90;99069.16;5077401;28;45486;-81
2022/09/28 01:46:29;;;;;;;;;4.00;1.50;;;;;12.21;82.35;99097.34;5093546;27;45370;-80
2022/09/28 01:48:57;;;;;;;;;1.00;1.00;;;;;12.20;82.15;99093.81;5111021;27;45691;-80
2022/09/28 01:51:48;;;;;;;;;4.00;1.25;;;;;11.92;82.18;99051.94;5099919;27;47302;-80
2022/09/28 01:54:24;;;;;;;;;0.00;0.00;;;;;11.82;82.25;99030.34;5088371;27;45358;-80
2022/09/28 01:56:56;;;;;;;;;1.75;0.25;;;;;12.18;82.31;99090.38;5097525;27;45487;-81
2022/09/28 01:59:26;;;;;;;;;2.00;2.00;;;;;12.14;82.06;99087.97;5098130;27;45378;-80
2022/09/28 02:01:57;;;;;;;;;0.00;0.00;;;;;12.18;82.23;99087.75;5097206;27;45422;-81
2022/09/28 02:04:38;;;;;;;;;0.00;0.00;;;;;12.07;82.49;99074.16;5096699;27;45414;-81
2022/09/28 02:07:09;;;;;;;;;3.50;0.25;;;;;12.18;82.06;99095.69;5078580;27;45369;-80
2022/09/28 02:09:41;;;;;;;;;1.50;1.00;;;;;11.79;81.65;99019.91;5097654;27;45402;-80
2022/09/28 02:12:18;;;;;;;;;0.50;0.50;;;;;12.08;81.68;99057.34;5096568;27;46711;-81
2022/09/28 02:14:48;;;;;;;;;1.00;1.00;;;;;12.19;81.69;99081.50;5079719;27;45411;-80
2022/09/28 02:17:15;;;;;;;;;1.00;0.00;;;;;12.06;81.69;99059.22;5097326;27;45440;-81
2022/09/28 02:19:41;;;;;;;;;0.00;0.00;;;;;12.19;81.56;99081.50;5098780;27;45545;-81
2022/09/28 02:22:23;;;;;;;;;1.50;1.00;;;;;12.13;81.87;99079.19;5100419;27;46450;-79
2022/09/28 02:25:08;;;;;;;;;1.25;1.25;;;;;12.19;81.27;99086.81;5091779;28;45343;-79
2022/09/28 02:28:00;;;;;;;;;4.25;1.00;;;;;12.19;81.42;99081.50;5086961;28;45558;-81
2022/09/28 02:30:25;;;;;;;;;1.75;1.75;;;;;12.03;81.43;99056.72;5093269;27;45346;-81
2022/09/28 02:32:55;;;;;;;;;0.50;0.25;;;;;12.16;81.47;99071.06;5098222;27;45377;-81
2022/09/28 02:35:21;;;;;;;;;0.00;0.00;;;;;12.18;80.93;99069.19;5089975;27;45269;-80
2022/09/28 02:37:48;;;;;;;;;0.25;0.25;;;;;11.95;81.57;99040.34;5083306;27;45343;-80
2022/09/28 02:40:20;;;;;;;;;1.25;1.00;;;;;12.14;80.72;99064.97;5077088;28;45522;-80
2022/09/28 02:43:23;;;;;;;;;4.00;1.00;;;;;12.18;80.73;99078.94;5093208;27;46297;-80
2022/09/28 02:46:07;;;;;;;;;1.00;1.00;;;;;12.15;80.68;99079.94;5077249;27;45686;-80
2022/09/28 02:48:44;;;;;;;;;0.75;0.00;;;;;12.15;80.68;99074.66;5075727;28;45467;-81
2022/09/28 02:51:22;;;;;;;;;3.00;2.00;;;;;12.15;80.61;99069.34;5081063;27;45423;-82
2022/09/28 02:54:05;;;;;;;;;1.00;1.00;;;;;12.15;80.46;99069.34;5096932;27;45545;-81
2022/09/28 02:56:54;;;;;;;;;1.00;1.00;;;;;12.14;80.60;99067.63;5077858;27;45431;-81
2022/09/28 02:59:38;;;;;;;;;2.00;1.50;;;;;12.14;80.78;99072.94;5077993;27;45592;-81
2022/09/28 03:02:24;;;;;;;;;4.25;1.25;;;;;12.16;81.17;99078.16;5096917;27;45428;-78
2022/09/28 03:04:52;;;;;;;;;1.00;1.00;;;;;12.16;80.74;99081.66;5095596;27;46394;-80
2022/09/28 03:07:30;;;;;;;;;0.25;0.25;;;;;12.09;80.51;99064.38;5096765;27;45354;-81
2022/09/28 03:10:07;;;;;;;;;4.00;0.75;;;;;11.85;80.18;99030.19;5076391;28;45291;-81
2022/09/28 03:12:33;;;;;;;;;5.50;3.50;;;;;12.09;80.17;99072.31;5079153;27;45324;-81
2022/09/28 03:15:21;;;;;;;;;0.75;0.75;;;;;12.07;80.01;99068.84;5096348;27;46663;-81
2022/09/28 03:17:46;;;;;;;;;1.00;1.00;;;;;11.78;79.98;99028.81;5096289;27;45592;-80
2022/09/28 03:20:12;;;;;;;;;2.00;0.00;;;;;12.02;80.55;99068.25;5105649;27;45446;-81
2022/09/28 03:22:37;;;;;;;;;0.00;0.00;;;;;11.98;80.22;99064.91;5092749;27;45397;-81
2022/09/28 03:25:05;;;;;;;;;2.00;2.00;;;;;11.56;80.49;99003.38;5097452;27;45587;-80
2022/09/28 03:27:30;;;;;;;;;1.25;1.00;;;;;12.03;80.00;99070.81;5078452;27;45606;-81
2022/09/28 03:29:55;;;;;;;;;1.00;1.00;;;;;12.03;79.95;99081.41;5094630;27;45374;-82
2022/09/28 03:32:21;;;;;;;;;4.75;2.00;;;;;12.00;79.85;99073.63;5077722;27;45474;-81
2022/09/28 03:34:46;;;;;;;;;2.00;2.00;;;;;11.96;79.74;99076.50;5094354;27;45432;-80
2022/09/28 03:37:11;;;;;;;;;1.00;1.00;;;;;11.99;80.27;99079.00;5095854;27;45353;-81
2022/09/28 03:39:37;;;;;;;;;1.00;1.00;;;;;11.82;80.38;99056.81;5096617;27;45478;-81
2022/09/28 03:42:02;;;;;;;;;0.50;0.50;;;;;11.96;80.11;99079.16;5095901;27;45472;-82
2022/09/28 03:44:28;;;;;;;;;1.75;1.75;;;;;11.52;79.81;99017.69;5112080;27;45529;-80
2022/09/28 03:46:53;;;;;;;;;1.50;1.50;;;;;11.92;80.05;99089.00;5117119;27;45448;-80
2022/09/28 03:49:18;;;;;;;;;0.75;0.75;;;;;11.66;80.08;99045.25;5097666;27;45783;-79
2022/09/28 03:51:44;;;;;;;;;0.75;0.00;;;;;11.75;79.88;99065.97;5096860;27;45350;-81
2022/09/28 03:54:09;;;;;;;;;1.00;1.00;;;;;11.85;80.15;99077.84;5091826;27;50746;-80
2022/09/28 03:56:34;;;;;;;;;1.25;1.25;;;;;11.87;80.35;99091.88;5098375;27;45436;-80
2022/09/28 03:59:02;;;;;;;;;2.00;2.00;;;;;11.89;80.20;99090.00;5101586;27;45294;-82
2022/09/28 04:01:28;;;;;;;;;2.00;0.50;;;;;11.87;80.21;99085.72;5110068;27;45492;-81
2022/09/28 04:03:54;;;;;;;;;1.75;1.00;;;;;11.88;80.48;99096.22;5098758;27;45719;-81
2022/09/28 04:06:20;;;;;;;;;4.00;2.00;;;;;11.70;80.23;99074.16;5097777;27;45311;-80
2022/09/28 04:08:46;;;;;;;;;1.50;1.50;;;;;11.84;80.38;99093.81;5114404;27;45343;-79
2022/09/28 04:11:11;;;;;;;;;1.00;0.00;;;;;11.84;80.59;99104.38;5123271;27;45326;-80
2022/09/28 04:13:36;;;;;;;;;1.25;0.00;;;;;11.61;79.71;99061.34;5116510;27;45407;-79
2022/09/28 04:16:03;;;;;;;;;1.75;1.00;;;;;11.82;79.76;99104.47;5118440;27;45517;-80
2022/09/28 04:18:29;;;;;;;;;4.00;1.50;;;;;11.79;79.71;99099.31;5099633;27;45425;-80
2022/09/28 04:21:07;;;;;;;;;0.75;0.75;;;;;11.60;79.57;99077.31;5116921;27;45603;-78
2022/09/28 04:23:34;;;;;;;;;1.75;1.75;;;;;11.29;79.62;99025.88;5111490;27;46664;-81
2022/09/28 04:26:01;;;;;;;;;0.50;0.50;;;;;11.80;79.84;99113.44;5102081;27;45340;-81
2022/09/28 04:31:12;;;;;;;;;0.50;0.00;;;;;11.55;79.90;99075.75;5098395;27;45409;-81
2022/09/28 04:33:38;;;;;;;;;1.00;1.00;;;;;11.68;79.46;99101.63;5095651;27;46133;-83
2022/09/28 04:36:04;;;;;;;;;2.00;1.00;;;;;11.79;79.89;99120.50;5095555;27;45407;-82
2022/09/28 04:38:30;;;;;;;;;0.00;0.00;;;;;11.78;79.87;99124.09;5095787;27;45399;-81
2022/09/28 04:40:55;;;;;;;;;0.00;0.00;;;;;11.78;80.16;99112.63;5096585;27;45403;-81
2022/09/28 04:43:21;;;;;;;;;1.00;1.00;;;;;11.67;79.76;99102.56;5104635;27;46122;-81
2022/09/28 04:45:46;;;;;;;;;1.75;1.75;;;;;11.78;80.10;99134.69;5096495;27;45483;-78
2022/09/28 04:48:11;;;;;;;;;2.00;1.00;;;;;11.49;80.09;99075.19;5098990;27;45458;-81
2022/09/28 04:50:36;;;;;;;;;1.00;1.00;;;;;11.58;80.65;99079.19;5080069;27;45700;-80
2022/09/28 04:53:03;;;;;;;;;3.00;1.00;;;;;11.64;80.05;99105.34;5080422;27;47855;-81
2022/09/28 04:55:31;;;;;;;;;2.00;1.00;;;;;11.73;80.04;99115.50;5099135;27;45368;-81
2022/09/28 04:58:01;;;;;;;;;2.00;0.75;;;;;11.79;80.03;99136.38;5110925;27;45528;-81
2022/09/28 05:00:28;;;;;;;;;1.00;1.00;;;;;11.80;80.20;99127.50;5121341;27;46121;-81
2022/09/28 05:02:53;;;;;;;;;2.00;1.00;;;;;11.53;80.79;99082.06;5126358;27;45453;-82
2022/09/28 05:05:19;;;;;;;;;0.75;0.75;;;;;11.83;80.43;99130.00;5109613;27;44902;-82
2022/09/28 05:07:45;;;;;;;;;1.00;1.00;;;;;11.79;80.34;99114.34;5101910;27;45395;-81
2022/09/28 05:10:10;;;;;;;;;5.50;1.50;;;;;11.60;79.57;99087.91;5102625;27;45276;-82
2022/09/28 05:12:35;;;;;;;;;1.00;1.00;;;;;11.70;79.43;99099.75;5109385;27;46580;-82
2022/09/28 05:15:01;;;;;;;;;2.75;1.00;;;;;11.62;79.33;99091.34;5101966;27;45612;-82
2022/09/28 05:17:26;;;;;;;;;0.75;0.75;;;;;11.60;79.20;99079.97;5095066;27;45489;-81
2022/09/28 05:19:51;;;;;;;;;7.00;1.00;;;;;11.73;79.24;99103.09;5099788;27;45432;-83
2022/09/28 05:22:17;;;;;;;;;1.75;1.25;;;;;11.56;79.38;99077.47;5099755;27;45349;-81
2022/09/28 05:24:42;;;;;;;;;1.00;1.00;;;;;11.41;79.20;99057.03;5104123;27;51011;-81
2022/09/28 05:27:07;;;;;;;;;1.25;1.00;;;;;11.50;79.09;99069.81;5109024;27;45532;-81
2022/09/28 05:29:33;;;;;;;;;1.00;1.00;;;;;11.78;79.65;99113.50;5101256;27;45310;-82
2022/09/28 05:32:00;;;;;;;;;2.50;1.00;;;;;11.78;78.88;99113.50;5100448;27;45463;-81
2022/09/28 05:34:25;;;;;;;;;1.50;1.50;;;;;11.66;79.36;99103.47;5101951;27;45444;-82
2022/09/28 05:36:51;;;;;;;;;2.50;1.25;;;;;11.76;78.74;99117.16;5107951;27;45524;-83
2022/09/28 05:39:16;;;;;;;;;1.50;1.00;;;;;11.63;78.86;99101.84;5100530;27;53645;-81
2022/09/28 05:41:41;;;;;;;;;1.25;1.25;;;;;11.63;78.65;99108.91;5098858;27;45439;-82
2022/09/28 05:44:07;;;;;;;;;4.00;1.00;;;;;11.73;79.27;99118.16;5098800;27;47406;-81
2022/09/28 05:46:32;;;;;;;;;2.75;1.00;;;;;11.76;78.54;99127.75;5063512;27;45405;-82
2022/09/28 05:48:59;;;;;;;;;1.00;1.00;;;;;11.58;78.48;99101.19;5098787;27;45409;-82
2022/09/28 05:51:24;;;;;;;;;1.00;1.00;;;;;10.88;78.23;98994.28;5097485;27;45487;-81
2022/09/28 05:53:54;;;;;;;;;1.00;0.75;;;;;10.92;78.37;98990.59;5079425;27;45371;-82
2022/09/28 05:56:19;;;;;;;;;1.00;0.75;;;;;11.26;78.75;99049.81;5090819;27;45540;-82
2022/09/28 05:58:45;;;;;;;;;1.00;1.00;;;;;11.40;78.79;99075.63;5095238;27;45658;-79
2022/09/28 06:01:10;;;;;;;;;2.50;1.25;;;;;11.68;78.50;99122.81;5117069;27;45586;-82
2022/09/28 06:03:35;;;;;;;;;2.00;2.00;;;;;11.68;78.62;99120.16;5077991;28;45477;-82
2022/09/28 06:06:01;;;;;;;;;4.00;4.00;;;;;11.69;78.30;99132.44;5095687;27;45481;-82
2022/09/28 06:08:27;;;;;;;;;5.25;1.00;;;;;11.81;78.33;99147.78;5096941;27;45480;-83
2022/09/28 06:10:52;;;;;;;;;5.00;3.50;;;;;11.78;78.09;99129.38;5099880;27;45408;-82
2022/09/28 06:13:18;;;;;;;;;2.00;2.00;;;;;11.29;77.80;99047.88;5099003;27;45417;-80
2022/09/28 06:15:45;;;;;;;;;5.50;4.25;;;;;11.78;76.86;99124.09;5097441;27;45447;-80
2022/09/28 06:18:15;;;;;;;;;1.00;1.00;;;;;11.93;77.54;99148.97;5098101;27;45549;-81
2022/09/28 06:20:41;;;;;;;;;3.25;3.00;;;;;11.90;76.71;99128.78;5098862;27;45387;-81
2022/09/28 06:23:07;;;;;;;;;4.00;2.00;;;;;11.66;76.50;99084.94;5102869;27;45496;-80
2022/09/28 06:25:33;;;;;;;;;1.75;1.75;;;;;11.94;76.25;99129.53;5113783;27;45554;-81
2022/09/28 06:27:59;;;;;;;;;4.00;2.00;;;;;12.08;76.31;99147.38;5105057;27;45309;-82
2022/09/28 06:30:26;;;;;;;;;1.50;1.50;;;;;12.11;75.96;99147.22;5101961;27;45427;-81
2022/09/28 06:32:55;;;;;;;;;2.00;1.00;;;;;11.78;75.60;99087.03;5101838;27;45456;-81
2022/09/28 06:35:22;;;;;;;;;1.50;1.50;;;;;11.64;75.20;99063.00;5106616;27;45391;-80
2022/09/28 06:37:48;;;;;;;;;1.00;1.00;;;;;12.12;74.99;99135.72;5096701;27;45485;-81
2022/09/28 06:40:13;;;;;;;;;2.00;1.00;;;;;11.97;75.25;99112.66;5095951;27;45412;-80
2022/09/28 06:42:38;;;;;;;;;1.00;1.00;;;;;11.97;74.56;99108.19;5098172;27;45398;-80
2022/09/28 06:45:05;;;;;;;;;1.00;1.00;;;;;12.06;73.58;99113.03;5100593;27;45460;-82
2022/09/28 06:47:32;;;;;;;;;1.00;1.00;;;;;12.47;73.44;99170.19;5097614;27;45648;-81
2022/09/28 06:49:57;;;;;;;;;1.00;1.00;;;;;12.34;72.93;99111.66;5086315;27;46194;-80
2022/09/28 06:52:23;;;;;;;;;4.25;4.25;;;;;13.05;71.27;99174.31;5085741;27;45347;-82
2022/09/28 06:54:48;;;;;;;;;2.25;2.00;;;;;13.18;70.79;99177.19;5079516;27;45340;-82
2022/09/28 06:57:13;;;;;;;;;2.25;2.25;;;;;12.93;70.72;99125.41;5099714;27;45323;-81
2022/09/28 06:59:39;;;;;;;;;4.00;1.25;;;;;13.41;69.86;99183.09;5105258;27;45741;-82
2022/09/28 07:02:04;;;;;;;;;2.00;1.00;;;;;13.84;69.02;99186.91;5101494;27;45449;-82
2022/09/28 07:04:30;;;;;;;;;1.50;1.50;;;;;14.30;67.19;99195.88;5089603;27;45458;-82
2022/09/28 07:06:56;;;;;;;;;1.25;1.25;;;;;14.48;66.11;99188.66;5100922;27;45567;-81
2022/09/28 07:09:21;;;;;;;;;1.00;1.00;;;;;13.22;65.94;98968.28;5083780;27;46382;-81
2022/09/28 07:11:46;;;;;;;;;3.00;2.00;;;;;14.51;65.25;99181.34;5098228;27;45401;-80
2022/09/28 07:14:12;;;;;;;;;1.75;1.75;;;;;14.59;65.43;99180.94;5096071;27;45478;-82
2022/09/28 07:16:37;;;;;;;;;2.00;2.00;;;;;14.25;64.68;99126.22;5096974;27;45368;-82
2022/09/28 07:19:03;;;;;;;;;1.75;1.00;;;;;14.68;64.53;99196.38;5090186;27;46252;-82
2022/09/28 07:21:28;;;;;;;;;1.75;1.00;;;;;14.71;65.15;99196.19;5077131;28;45456;-82
2022/09/28 07:23:55;;;;;;;;;3.50;2.00;;;;;14.73;65.02;99185.47;5095218;27;45609;-82
2022/09/28 07:26:21;;;;;;;;;1.75;1.00;;;;;14.43;64.28;99145.56;5096534;27;45502;-80
2022/09/28 07:28:47;;;;;;;;;3.25;2.00;;;;;14.53;63.88;99149.34;5097279;27;45429;-80
2022/09/28 07:31:12;;;;;;;;;3.25;1.00;;;;;14.76;63.29;99198.59;5077788;27;45330;-81
2022/09/28 07:33:37;;;;;;;;;7.50;7.50;;;;;14.50;63.75;99157.50;5094202;27;45504;-80
2022/09/28 07:36:05;;;;;;;;;5.50;3.25;;;;;14.81;63.95;99204.47;5095806;27;45547;-81
2022/09/28 07:38:34;;;;;;;;;6.00;2.75;;;;;14.95;63.30;99203.66;5065812;27;46107;-80
2022/09/28 07:41:13;;;;;;;;;1.50;1.00;;;;;14.96;63.39;99204.53;5094371;27;45519;-80
2022/09/28 07:43:40;;;;;;;;;4.00;1.25;;;;;15.00;63.00;99206.03;5092432;27;45472;-81
2022/09/28 07:46:10;;;;;;;;;3.00;3.00;;;;;14.97;62.74;99183.16;5083434;27;45475;-80
2022/09/28 07:48:40;;;;;;;;;1.75;1.75;;;;;14.99;61.69;99180.41;5066010;27;45412;-78
2022/09/28 07:51:06;;;;;;;;;3.25;2.00;;;;;15.25;62.19;99218.72;5081894;27;45587;-81
2022/09/28 07:53:32;;;;;;;;;3.50;1.50;;;;;15.35;61.64;99213.69;5093450;27;45712;-78
2022/09/28 07:56:08;;;;;;;;;2.00;2.00;;;;;15.40;61.01;99206.28;5086568;27;45648;-81
2022/09/28 07:58:36;;;;;;;;;2.00;1.00;;;;;15.42;60.45;99199.06;5064003;27;47506;-82
2022/09/28 08:01:04;;;;;;;;;2.00;1.25;;;;;15.63;60.18;99232.31;5097143;27;45204;-80
2022/09/28 08:03:29;;;;;;;;;1.50;1.50;;;;;15.70;60.68;99213.31;5090312;27;45299;-80
2022/09/28 08:06:00;;;;;;;;;3.00;2.00;;;;;15.56;59.68;99175.09;5106760;27;45462;-80
2022/09/28 08:08:25;;;;;;;;;2.00;2.00;;;;;15.72;59.33;99190.97;5064249;28;46449;-81
2022/09/28 08:10:51;;;;;;;;;4.00;2.00;;;;;16.17;59.52;99233.47;5074755;27;45565;-79
2022/09/28 08:13:18;;;;;;;;;2.00;1.50;;;;;16.49;58.96;99234.03;5083940;27;45358;-79
2022/09/28 08:15:49;;;;;;;;;2.50;1.25;;;;;16.47;57.53;99174.63;5062937;27;45565;-82
2022/09/28 08:18:15;;;;;;;;;2.00;2.00;;;;;17.15;56.13;99228.78;5084090;27;46285;-81
2022/09/28 08:23:25;;;;;;;;;9.75;8.75;;;;;17.51;54.91;99232.53;5096687;27;44785;-83
2022/09/28 08:25:54;;;;;;;;;2.75;2.75;;;;;17.29;54.63;99219.81;5092167;27;45535;-79
2022/09/28 08:28:22;;;;;;;;;3.00;2.00;;;;;16.38;54.40;99092.56;5084741;27;46089;-82
2022/09/28 08:30:48;;;;;;;;;5.25;2.00;;;;;17.10;54.51;99238.06;5073644;27;45488;-82
2022/09/28 08:33:20;;;;;;;;;2.25;2.25;;;;;16.84;54.78;99228.16;5083057;27;45450;-80
2022/09/28 08:35:46;;;;;;;;;2.00;2.00;;;;;16.56;55.18;99197.13;5085209;27;45531;-79
2022/09/28 08:38:14;;;;;;;;;2.00;1.00;;;;;16.49;54.72;99193.19;5071920;27;45409;-79
2022/09/28 08:40:55;;;;;;;;;0.75;0.50;;;;;16.75;54.48;99225.25;5096689;27;45478;-81
2022/09/28 08:43:44;;;;;;;;;1.00;1.00;;;;;17.13;53.44;99236.03;5076282;28;45519;-81
2022/09/28 08:46:13;;;;;;;;;1.00;1.00;;;;;17.01;52.29;99234.22;5093472;27;45583;-79
2022/09/28 08:48:53;;;;;;;;;1.50;1.00;;;;;16.97;52.62;99227.34;5086659;27;45528;-80
2022/09/28 08:51:25;;;;;;;;;2.00;1.50;;;;;17.47;50.94;99212.31;5079172;27;45477;-82
2022/09/28 08:54:03;;;;;;;;;1.50;1.00;;;;;17.69;50.70;99218.84;5085391;27;45393;-82
2022/09/28 08:56:38;;;;;;;;;1.25;1.25;;;;;17.92;49.69;99242.13;5074340;27;45426;-80
2022/09/28 08:59:11;;;;;;;;;2.00;1.50;;;;;18.09;49.60;99248.94;5075123;27;45397;-79
2022/09/28 09:01:40;;;;;;;;;2.00;1.50;;;;;18.31;49.01;99241.19;5076814;27;45550;-82
2022/09/28 09:04:06;;;;;;;;;0.00;0.00;;;;;18.31;48.03;99219.78;5085007;27;45368;-80
2022/09/28 09:06:46;;;;;;;;;0.00;0.00;;;;;18.48;47.41;99243.47;5094750;27;45326;-82
2022/09/28 09:09:45;;;;;;;;;0.75;0.00;;;;;18.54;47.30;99236.78;5094435;27;45448;-81
2022/09/28 09:12:42;;;;;;;;;1.00;1.00;;;;;18.52;47.42;99234.22;5096789;27;45578;-79
2022/09/28 09:15:37;;;;;;;;;2.50;0.25;;;;;18.55;46.56;99247.38;5092897;27;45382;-80
2022/09/28 09:18:16;;;;;;;;;0.25;0.25;;;;;18.61;47.00;99240.72;5083847;27;45533;-81
2022/09/28 09:20:48;;;;;;;;;1.75;0.75;;;;;18.52;45.49;99241.41;5072970;27;46730;-81
2022/09/28 09:23:28;;;;;;;;;3.00;0.00;;;;;18.27;46.08;99206.63;5088731;27;45425;-80
2022/09/28 09:26:02;;;;;;;;;1.50;1.50;;;;;18.58;45.66;99244.47;5090098;27;45719;-80
2022/09/28 09:28:40;;;;;;;;;1.25;1.25;;;;;18.78;45.19;99247.50;5093813;27;45347;-81
2022/09/28 09:31:28;;;;;;;;;0.75;0.75;;;;;18.86;45.12;99244.28;5082912;27;45528;-79
2022/09/28 09:34:16;;;;;;;;;1.00;1.00;;;;;18.79;44.58;99201.03;5089983;27;45359;-80
2022/09/28 09:37:06;;;;;;;;;1.00;0.00;;;;;19.61;43.18;99249.19;5088264;27;45491;-80
2022/09/28 09:40:07;;;;;;;;;1.00;1.00;;;;;19.93;42.74;99237.78;5087925;27;45595;-81
2022/09/28 09:43:00;;;;;;;;;0.25;0.25;;;;;19.95;42.35;99241.22;5008477;28;46404;-80
2022/09/28 09:45:45;;;;;;;;;1.00;1.00;;;;;20.08;42.39;99234.88;5012080;28;45547;-79
2022/09/28 09:48:20;;;;;;;;;1.00;1.00;;;;;19.98;41.80;99168.56;5013036;28;45513;-80
2022/09/28 09:50:50;;;;;;;;;5.00;2.00;;;;;21.00;41.35;99238.03;5017982;28;45514;-82
2022/09/28 09:53:45;;;;;;;;;1.50;0.50;;;;;21.55;39.35;99235.16;5016733;28;46711;-81
2022/09/28 09:56:19;;;;;;;;;2.50;0.00;;;;;21.52;39.46;99162.00;5016399;28;45526;-80
2022/09/28 09:58:50;;;;;;;;;3.50;2.00;;;;;22.08;38.13;99219.81;5001257;28;45371;-80
2022/09/28 10:01:25;;;;;;;;;0.25;0.00;;;;;22.32;36.67;99230.25;5013874;28;45467;-80
2022/09/28 10:03:52;;;;;;;;;1.25;1.25;;;;;22.69;37.91;99230.41;5019075;28;45541;-80
2022/09/28 10:06:28;;;;;;;;;1.50;1.00;;;;;23.40;36.30;99225.72;5017737;28;45623;-77
2022/09/28 10:09:04;;;;;;;;;1.00;0.25;;;;;24.05;35.03;99203.31;5015521;28;45580;-81
2022/09/28 10:11:37;;;;;;;;;2.00;1.00;;;;;24.79;33.91;99217.63;5020549;28;45546;-78
2022/09/28 10:14:04;;;;;;;;;1.00;1.00;;;;;25.47;33.06;99217.00;5016354;28;45743;-77
2022/09/28 10:16:31;;;;;;;;;0.25;0.25;;;;;25.97;32.43;99207.28;5051290;27;45595;-80
2022/09/28 10:18:57;;;;;;;;;1.00;1.00;;;;;26.24;31.37;99217.03;5107606;27;45345;-81
2022/09/28 10:21:24;;;;;;;;;3.00;1.00;;;;;26.56;31.10;99212.72;5090282;27;45312;-79
2022/09/28 10:23:55;;;;;;;;;2.25;1.00;;;;;26.50;30.92;99212.56;5076120;27;46165;-80
2022/09/28 10:26:33;;;;;;;;;5.00;2.00;;;;;26.04;31.71;99219.19;5082247;27;45501;-82
2022/09/28 10:29:05;;;;;;;;;1.00;1.00;;;;;25.50;31.60;99200.44;5093951;27;45355;-81
2022/09/28 10:31:47;;;;;;;;;1.00;1.00;;;;;24.80;31.85;99165.31;5079891;27;45475;-78
2022/09/28 10:34:14;;;;;;;;;3.00;0.75;;;;;24.67;32.07;99192.69;5084198;27;45494;-80
2022/09/28 10:36:46;;;;;;;;;0.50;0.50;;;;;24.65;32.95;99227.97;5098554;27;45687;-81
2022/09/28 10:39:29;;;;;;;;;4.00;1.00;;;;;24.40;33.44;99223.28;5089820;27;45755;-80
2022/09/28 10:41:57;;;;;;;;;1.75;1.25;;;;;23.59;32.80;99154.69;5095212;27;45521;-79
2022/09/28 10:44:23;;;;;;;;;2.00;0.25;;;;;23.76;34.24;99212.38;5086905;27;45412;-80
2022/09/28 10:47:04;;;;;;;;;0.25;0.00;;;;;23.43;34.19;99203.84;5087980;27;45666;-80
2022/09/28 10:49:45;;;;;;;;;0.25;0.25;;;;;23.45;34.72;99207.25;5084591;27;45611;-80
2022/09/28 10:52:32;;;;;;;;;1.00;0.25;;;;;24.06;34.11;99208.56;5091290;27;45734;-82
2022/09/28 10:54:57;;;;;;;;;1.00;1.00;;;;;23.99;33.52;99222.81;5087760;27;45450;-79
2022/09/28 10:57:33;;;;;;;;;1.00;1.00;;;;;23.74;32.50;99111.91;5091050;27;45347;-80
2022/09/28 10:59:59;;;;;;;;;0.00;0.00;;;;;24.38;32.83;99161.34;5109583;27;45467;-82
2022/09/28 11:02:26;;;;;;;;;0.00;0.00;;;;;25.41;31.77;99212.22;5114517;27;45429;-82
2022/09/28 11:04:56;;;;;;;;;1.50;0.25;;;;;25.75;31.38;99218.66;5092130;27;45348;-82
2022/09/28 11:07:30;;;;;;;;;2.75;1.25;;;;;25.55;31.39;99178.31;5088482;27;45521;-82
2022/09/28 11:09:57;;;;;;;;;1.00;1.00;;;;;25.93;31.47;99208.59;5085429;27;45440;-80
2022/09/28 11:12:41;;;;;;;;;1.00;1.00;;;;;25.89;31.32;99205.38;5095383;27;45574;-80
2022/09/28 11:15:18;;;;;;;;;0.00;0.00;;;;;25.98;31.00;99216.22;5094175;27;45989;-83
2022/09/28 11:17:43;;;;;;;;;0.00;0.00;;;;;25.92;30.85;99208.75;5090277;27;45579;-82
2022/09/28 11:20:34;;;;;;;;;0.00;0.00;;;;;26.03;30.17;99222.06;5093579;27;45326;-82
2022/09/28 11:23:14;;;;;;;;;0.25;0.25;;;;;26.35;29.78;99187.97;5078884;27;45347;-84
2022/09/28 11:25:41;;;;;;;;;0.50;0.25;;;;;26.11;30.09;99215.81;5075418;27;47332;-81
2022/09/28 11:28:21;;;;;;;;;1.00;1.00;;;;;25.64;30.71;99220.63;5091915;27;45365;-83
2022/09/28 11:30:51;;;;;;;;;1.00;0.00;;;;;25.06;31.30;99218.53;5070154;27;45532;-81
2022/09/28 11:33:29;;;;;;;;;1.00;0.00;;;;;24.13;31.81;99149.47;5091714;27;45531;-81
2022/09/28 11:36:12;;;;;;;;;0.75;0.75;;;;;23.87;32.71;99217.63;5077409;27;46083;-83
2022/09/28 11:38:59;;;;;;;;;1.75;1.75;;;;;23.42;33.53;99224.53;5084031;27;45433;-82
2022/09/28 11:41:27;;;;;;;;;0.00;0.00;;;;;23.05;35.19;99221.75;5104804;27;45577;-82
2022/09/28 11:44:17;;;;;;;;;1.75;0.25;;;;;22.61;34.49;99221.31;5090929;27;45605;-80
2022/09/28 11:47:02;;;;;;;;;1.00;0.00;;;;;22.00;35.71;99217.78;5088177;27;46544;-78
2022/09/28 11:50:05;;;;;;;;;2.00;1.00;;;;;21.53;35.42;99191.44;5085413;27;45560;-82
2022/09/28 11:52:43;;;;;;;;;1.00;1.00;;;;;21.29;36.86;99218.56;5090723;27;45552;-79
2022/09/28 11:55:17;;;;;;;;;1.50;1.00;;;;;20.93;37.75;99218.03;5077913;27;45604;-80
2022/09/28 11:57:48;;;;;;;;;0.00;0.00;;;;;20.49;38.43;99190.38;5084554;27;46278;-79
2022/09/28 12:00:19;;;;;;;;;0.00;0.00;;;;;20.53;39.40;99222.19;5074440;27;45361;-79